sensor_id;sensor_type;location;lat;lon;timestamp;P1;durP1;ratioP1;P2;durP2;ratioP2
9974;SDS011;5028;50.974;4.968;2023-08-21T00:00:59;5.57;;;1.93;;
9974;SDS011;5028;50.974;4.968;2023-08-21T00:03:30;9.33;;;2.13;;
9974;SDS011;5028;50.974;4.968;2023-08-21T00:06:00;4.77;;;2.10;;
9974;SDS011;5028;50.974;4.968;2023-08-21T00:08:29;5.43;;;1.80;;
9974;SDS011;5028;50.974;4.968;2023-08-21T00:10:58;4.87;;;1.90;;
9974;SDS011;5028;50.974;4.968;2023-08-21T00:13:27;5.60;;;2.07;;
9974;SDS011;5028;50.974;4.968;2023-08-21T00:15:56;8.37;;;2.20;;
9974;SDS011;5028;50.974;4.968;2023-08-21T00:18:24;4.10;;;2.10;;
9974;SDS011;5028;50.974;4.968;2023-08-21T00:20:54;10.17;;;2.40;;
9974;SDS011;5028;50.974;4.968;2023-08-21T00:23:23;6.37;;;2.10;;
9974;SDS011;5028;50.974;4.968;2023-08-21T00:25:52;6.97;;;2.10;;
9974;SDS011;5028;50.974;4.968;2023-08-21T00:28:21;6.43;;;2.10;;
9974;SDS011;5028;50.974;4.968;2023-08-21T00:30:50;6.10;;;2.20;;
9974;SDS011;5028;50.974;4.968;2023-08-21T00:33:19;6.40;;;2.37;;
9974;SDS011;5028;50.974;4.968;2023-08-21T00:35:48;4.60;;;2.30;;
9974;SDS011;5028;50.974;4.968;2023-08-21T00:38:18;5.40;;;1.90;;
9974;SDS011;5028;50.974;4.968;2023-08-21T00:40:47;6.13;;;2.10;;
9974;SDS011;5028;50.974;4.968;2023-08-21T00:43:16;5.17;;;2.10;;
9974;SDS011;5028;50.974;4.968;2023-08-21T00:45:45;5.90;;;2.33;;
9974;SDS011;5028;50.974;4.968;2023-08-21T00:48:15;5.50;;;2.07;;
9974;SDS011;5028;50.974;4.968;2023-08-21T00:50:45;6.30;;;1.90;;
9974;SDS011;5028;50.974;4.968;2023-08-21T00:53:15;5.47;;;1.97;;
9974;SDS011;5028;50.974;4.968;2023-08-21T00:55:45;4.97;;;2.10;;
9974;SDS011;5028;50.974;4.968;2023-08-21T00:58:14;5.63;;;2.40;;
9974;SDS011;5028;50.974;4.968;2023-08-21T01:00:44;7.17;;;2.23;;
9974;SDS011;5028;50.974;4.968;2023-08-21T01:03:16;6.57;;;2.23;;
9974;SDS011;5028;50.974;4.968;2023-08-21T01:05:48;5.17;;;2.20;;
9974;SDS011;5028;50.974;4.968;2023-08-21T01:08:19;7.90;;;2.10;;
9974;SDS011;5028;50.974;4.968;2023-08-21T01:10:56;5.83;;;2.10;;
9974;SDS011;5028;50.974;4.968;2023-08-21T01:13:34;5.43;;;2.20;;
9974;SDS011;5028;50.974;4.968;2023-08-21T01:16:12;5.20;;;2.10;;
9974;SDS011;5028;50.974;4.968;2023-08-21T01:18:46;5.83;;;2.00;;
9974;SDS011;5028;50.974;4.968;2023-08-21T01:21:16;7.07;;;2.10;;
9974;SDS011;5028;50.974;4.968;2023-08-21T01:23:47;6.13;;;2.17;;
9974;SDS011;5028;50.974;4.968;2023-08-21T01:26:16;6.37;;;2.30;;
9974;SDS011;5028;50.974;4.968;2023-08-21T01:28:44;5.30;;;2.10;;
9974;SDS011;5028;50.974;4.968;2023-08-21T01:31:14;4.97;;;1.90;;
9974;SDS011;5028;50.974;4.968;2023-08-21T01:33:49;6.70;;;2.03;;
9974;SDS011;5028;50.974;4.968;2023-08-21T01:36:21;6.10;;;1.97;;
9974;SDS011;5028;50.974;4.968;2023-08-21T01:38:52;5.53;;;2.00;;
9974;SDS011;5028;50.974;4.968;2023-08-21T01:41:22;4.40;;;1.90;;
9974;SDS011;5028;50.974;4.968;2023-08-21T01:43:52;4.20;;;1.90;;
9974;SDS011;5028;50.974;4.968;2023-08-21T01:46:22;4.33;;;2.13;;
9974;SDS011;5028;50.974;4.968;2023-08-21T01:48:52;6.17;;;2.13;;
9974;SDS011;5028;50.974;4.968;2023-08-21T01:51:20;4.23;;;1.97;;
9974;SDS011;5028;50.974;4.968;2023-08-21T01:53:49;4.20;;;2.00;;
9974;SDS011;5028;50.974;4.968;2023-08-21T01:56:20;4.77;;;1.73;;
9974;SDS011;5028;50.974;4.968;2023-08-21T01:58:49;3.73;;;1.90;;
9974;SDS011;5028;50.974;4.968;2023-08-21T02:01:18;6.63;;;2.13;;
9974;SDS011;5028;50.974;4.968;2023-08-21T02:03:47;7.07;;;2.10;;
9974;SDS011;5028;50.974;4.968;2023-08-21T02:06:15;4.57;;;1.93;;
9974;SDS011;5028;50.974;4.968;2023-08-21T02:08:45;5.40;;;2.33;;
9974;SDS011;5028;50.974;4.968;2023-08-21T02:11:15;7.73;;;2.30;;
9974;SDS011;5028;50.974;4.968;2023-08-21T02:13:47;6.77;;;2.10;;
9974;SDS011;5028;50.974;4.968;2023-08-21T02:16:16;4.03;;;1.83;;
9974;SDS011;5028;50.974;4.968;2023-08-21T02:18:47;9.93;;;2.50;;
9974;SDS011;5028;50.974;4.968;2023-08-21T02:21:16;6.67;;;2.40;;
9974;SDS011;5028;50.974;4.968;2023-08-21T02:23:45;8.37;;;2.37;;
9974;SDS011;5028;50.974;4.968;2023-08-21T02:26:16;5.00;;;1.90;;
9974;SDS011;5028;50.974;4.968;2023-08-21T02:28:46;7.87;;;2.47;;
9974;SDS011;5028;50.974;4.968;2023-08-21T02:31:15;5.20;;;2.30;;
9974;SDS011;5028;50.974;4.968;2023-08-21T02:33:45;6.60;;;2.10;;
9974;SDS011;5028;50.974;4.968;2023-08-21T02:36:14;8.73;;;2.20;;
9974;SDS011;5028;50.974;4.968;2023-08-21T02:38:44;6.07;;;2.43;;
9974;SDS011;5028;50.974;4.968;2023-08-21T02:41:13;3.17;;;1.80;;
9974;SDS011;5028;50.974;4.968;2023-08-21T02:43:45;6.90;;;2.37;;
9974;SDS011;5028;50.974;4.968;2023-08-21T02:46:14;4.17;;;2.03;;
9974;SDS011;5028;50.974;4.968;2023-08-21T02:48:44;5.30;;;2.23;;
9974;SDS011;5028;50.974;4.968;2023-08-21T02:51:13;5.97;;;2.33;;
9974;SDS011;5028;50.974;4.968;2023-08-21T02:53:41;5.10;;;2.27;;
9974;SDS011;5028;50.974;4.968;2023-08-21T02:56:10;5.70;;;1.83;;
9974;SDS011;5028;50.974;4.968;2023-08-21T02:58:39;5.03;;;2.10;;
9974;SDS011;5028;50.974;4.968;2023-08-21T03:01:09;4.97;;;2.20;;
9974;SDS011;5028;50.974;4.968;2023-08-21T03:03:38;6.73;;;2.23;;
9974;SDS011;5028;50.974;4.968;2023-08-21T03:06:07;5.40;;;2.17;;
9974;SDS011;5028;50.974;4.968;2023-08-21T03:08:36;5.70;;;2.20;;
9974;SDS011;5028;50.974;4.968;2023-08-21T03:11:05;7.53;;;2.30;;
9974;SDS011;5028;50.974;4.968;2023-08-21T03:13:33;5.53;;;2.40;;
9974;SDS011;5028;50.974;4.968;2023-08-21T03:16:02;6.90;;;2.37;;
9974;SDS011;5028;50.974;4.968;2023-08-21T03:18:53;7.40;;;2.30;;
9974;SDS011;5028;50.974;4.968;2023-08-21T03:21:24;7.47;;;2.70;;
9974;SDS011;5028;50.974;4.968;2023-08-21T03:23:54;6.60;;;2.50;;
9974;SDS011;5028;50.974;4.968;2023-08-21T03:26:27;6.27;;;2.80;;
9974;SDS011;5028;50.974;4.968;2023-08-21T03:28:56;5.80;;;2.50;;
9974;SDS011;5028;50.974;4.968;2023-08-21T03:31:26;5.77;;;2.50;;
9974;SDS011;5028;50.974;4.968;2023-08-21T03:33:58;6.03;;;2.43;;
9974;SDS011;5028;50.974;4.968;2023-08-21T03:36:27;6.87;;;2.60;;
9974;SDS011;5028;50.974;4.968;2023-08-21T03:38:59;5.37;;;2.73;;
9974;SDS011;5028;50.974;4.968;2023-08-21T03:41:28;5.67;;;2.67;;
9974;SDS011;5028;50.974;4.968;2023-08-21T03:43:59;7.83;;;2.90;;
9974;SDS011;5028;50.974;4.968;2023-08-21T03:46:29;5.20;;;2.50;;
9974;SDS011;5028;50.974;4.968;2023-08-21T03:48:58;6.63;;;2.40;;
9974;SDS011;5028;50.974;4.968;2023-08-21T03:51:29;6.20;;;2.20;;
9974;SDS011;5028;50.974;4.968;2023-08-21T03:53:58;4.57;;;2.37;;
9974;SDS011;5028;50.974;4.968;2023-08-21T03:56:27;7.30;;;2.50;;
9974;SDS011;5028;50.974;4.968;2023-08-21T03:58:56;7.17;;;2.50;;
9974;SDS011;5028;50.974;4.968;2023-08-21T04:01:25;5.50;;;2.50;;
9974;SDS011;5028;50.974;4.968;2023-08-21T04:03:54;5.43;;;2.37;;
9974;SDS011;5028;50.974;4.968;2023-08-21T04:06:23;6.00;;;2.43;;
9974;SDS011;5028;50.974;4.968;2023-08-21T04:08:57;5.30;;;2.43;;
9974;SDS011;5028;50.974;4.968;2023-08-21T04:11:27;7.43;;;2.80;;
9974;SDS011;5028;50.974;4.968;2023-08-21T04:13:56;5.73;;;2.40;;
9974;SDS011;5028;50.974;4.968;2023-08-21T04:16:25;5.07;;;2.40;;
9974;SDS011;5028;50.974;4.968;2023-08-21T04:18:54;7.80;;;2.67;;
9974;SDS011;5028;50.974;4.968;2023-08-21T04:21:23;5.60;;;2.73;;
9974;SDS011;5028;50.974;4.968;2023-08-21T04:23:56;7.33;;;2.83;;
9974;SDS011;5028;50.974;4.968;2023-08-21T04:26:25;6.30;;;2.80;;
9974;SDS011;5028;50.974;4.968;2023-08-21T04:28:53;5.97;;;2.93;;
9974;SDS011;5028;50.974;4.968;2023-08-21T04:31:22;6.17;;;2.60;;
9974;SDS011;5028;50.974;4.968;2023-08-21T04:33:50;7.63;;;2.53;;
9974;SDS011;5028;50.974;4.968;2023-08-21T04:36:19;7.63;;;2.97;;
9974;SDS011;5028;50.974;4.968;2023-08-21T04:38:48;5.90;;;2.50;;
9974;SDS011;5028;50.974;4.968;2023-08-21T04:41:18;6.73;;;2.63;;
9974;SDS011;5028;50.974;4.968;2023-08-21T04:43:47;5.43;;;2.50;;
9974;SDS011;5028;50.974;4.968;2023-08-21T04:46:15;7.80;;;2.97;;
9974;SDS011;5028;50.974;4.968;2023-08-21T04:48:46;6.27;;;2.60;;
9974;SDS011;5028;50.974;4.968;2023-08-21T04:51:15;6.73;;;2.57;;
9974;SDS011;5028;50.974;4.968;2023-08-21T04:53:44;5.97;;;2.50;;
9974;SDS011;5028;50.974;4.968;2023-08-21T04:56:14;7.77;;;2.40;;
9974;SDS011;5028;50.974;4.968;2023-08-21T04:58:45;6.43;;;2.53;;
9974;SDS011;5028;50.974;4.968;2023-08-21T05:01:14;6.43;;;2.60;;
9974;SDS011;5028;50.974;4.968;2023-08-21T05:03:43;8.17;;;2.90;;
9974;SDS011;5028;50.974;4.968;2023-08-21T05:06:12;7.50;;;2.77;;
9974;SDS011;5028;50.974;4.968;2023-08-21T05:08:42;6.20;;;2.50;;
9974;SDS011;5028;50.974;4.968;2023-08-21T05:11:11;6.40;;;2.67;;
9974;SDS011;5028;50.974;4.968;2023-08-21T05:13:45;8.23;;;3.03;;
9974;SDS011;5028;50.974;4.968;2023-08-21T05:16:14;5.60;;;2.70;;
9974;SDS011;5028;50.974;4.968;2023-08-21T05:18:43;6.37;;;3.10;;
9974;SDS011;5028;50.974;4.968;2023-08-21T05:21:13;7.83;;;2.83;;
9974;SDS011;5028;50.974;4.968;2023-08-21T05:23:42;5.00;;;2.90;;
9974;SDS011;5028;50.974;4.968;2023-08-21T05:26:15;6.87;;;2.83;;
9974;SDS011;5028;50.974;4.968;2023-08-21T05:28:45;5.93;;;3.20;;
9974;SDS011;5028;50.974;4.968;2023-08-21T05:31:14;5.93;;;2.93;;
9974;SDS011;5028;50.974;4.968;2023-08-21T05:33:43;8.70;;;3.20;;
9974;SDS011;5028;50.974;4.968;2023-08-21T05:36:12;7.27;;;3.10;;
9974;SDS011;5028;50.974;4.968;2023-08-21T05:38:41;7.70;;;3.40;;
9974;SDS011;5028;50.974;4.968;2023-08-21T05:41:11;9.17;;;3.63;;
9974;SDS011;5028;50.974;4.968;2023-08-21T05:43:40;7.03;;;3.40;;
9974;SDS011;5028;50.974;4.968;2023-08-21T05:46:11;6.43;;;3.43;;
9974;SDS011;5028;50.974;4.968;2023-08-21T05:48:40;6.77;;;3.67;;
9974;SDS011;5028;50.974;4.968;2023-08-21T05:51:09;8.03;;;3.63;;
9974;SDS011;5028;50.974;4.968;2023-08-21T05:53:38;6.27;;;3.03;;
9974;SDS011;5028;50.974;4.968;2023-08-21T05:56:07;6.77;;;3.40;;
9974;SDS011;5028;50.974;4.968;2023-08-21T05:58:36;7.30;;;3.53;;
9974;SDS011;5028;50.974;4.968;2023-08-21T06:01:06;5.83;;;3.27;;
9974;SDS011;5028;50.974;4.968;2023-08-21T06:03:37;7.57;;;3.37;;
9974;SDS011;5028;50.974;4.968;2023-08-21T06:06:06;7.23;;;3.40;;
9974;SDS011;5028;50.974;4.968;2023-08-21T06:08:35;7.20;;;3.40;;
9974;SDS011;5028;50.974;4.968;2023-08-21T06:11:06;8.47;;;3.63;;
9974;SDS011;5028;50.974;4.968;2023-08-21T06:13:35;7.67;;;3.27;;
9974;SDS011;5028;50.974;4.968;2023-08-21T06:16:04;10.40;;;3.13;;
9974;SDS011;5028;50.974;4.968;2023-08-21T06:18:33;7.53;;;3.17;;
9974;SDS011;5028;50.974;4.968;2023-08-21T06:21:03;8.60;;;3.67;;
9974;SDS011;5028;50.974;4.968;2023-08-21T06:23:32;7.77;;;2.83;;
9974;SDS011;5028;50.974;4.968;2023-08-21T06:26:00;6.10;;;2.80;;
9974;SDS011;5028;50.974;4.968;2023-08-21T06:28:30;6.20;;;2.80;;
9974;SDS011;5028;50.974;4.968;2023-08-21T06:30:59;7.97;;;3.03;;
9974;SDS011;5028;50.974;4.968;2023-08-21T06:33:30;6.07;;;2.80;;
9974;SDS011;5028;50.974;4.968;2023-08-21T06:36:01;5.63;;;2.50;;
9974;SDS011;5028;50.974;4.968;2023-08-21T06:38:32;8.23;;;2.67;;
9974;SDS011;5028;50.974;4.968;2023-08-21T06:41:03;6.03;;;2.90;;
9974;SDS011;5028;50.974;4.968;2023-08-21T06:43:37;6.57;;;2.80;;
9974;SDS011;5028;50.974;4.968;2023-08-21T06:46:10;7.33;;;2.70;;
9974;SDS011;5028;50.974;4.968;2023-08-21T06:48:40;6.13;;;2.30;;
9974;SDS011;5028;50.974;4.968;2023-08-21T06:51:11;6.80;;;2.77;;
9974;SDS011;5028;50.974;4.968;2023-08-21T06:53:43;6.30;;;2.83;;
9974;SDS011;5028;50.974;4.968;2023-08-21T06:56:12;8.50;;;2.77;;
9974;SDS011;5028;50.974;4.968;2023-08-21T06:58:40;8.03;;;3.03;;
9974;SDS011;5028;50.974;4.968;2023-08-21T07:01:09;8.00;;;2.77;;
9974;SDS011;5028;50.974;4.968;2023-08-21T07:03:38;6.13;;;2.50;;
9974;SDS011;5028;50.974;4.968;2023-08-21T07:06:07;5.10;;;2.40;;
9974;SDS011;5028;50.974;4.968;2023-08-21T07:08:37;4.20;;;2.00;;
9974;SDS011;5028;50.974;4.968;2023-08-21T07:11:07;7.20;;;2.40;;
9974;SDS011;5028;50.974;4.968;2023-08-21T07:13:36;5.53;;;2.50;;
9974;SDS011;5028;50.974;4.968;2023-08-21T07:16:06;7.90;;;2.27;;
9974;SDS011;5028;50.974;4.968;2023-08-21T07:18:36;5.80;;;2.17;;
9974;SDS011;5028;50.974;4.968;2023-08-21T07:21:07;5.27;;;2.30;;
9974;SDS011;5028;50.974;4.968;2023-08-21T07:23:58;4.97;;;2.10;;
9974;SDS011;5028;50.974;4.968;2023-08-21T07:26:26;6.07;;;2.37;;
9974;SDS011;5028;50.974;4.968;2023-08-21T07:28:55;5.93;;;2.23;;
9974;SDS011;5028;50.974;4.968;2023-08-21T07:31:24;7.53;;;2.20;;
9974;SDS011;5028;50.974;4.968;2023-08-21T07:33:55;4.53;;;1.90;;
9974;SDS011;5028;50.974;4.968;2023-08-21T07:36:24;7.87;;;2.07;;
9974;SDS011;5028;50.974;4.968;2023-08-21T07:38:55;8.43;;;2.70;;
9974;SDS011;5028;50.974;4.968;2023-08-21T07:41:25;5.20;;;2.20;;
9974;SDS011;5028;50.974;4.968;2023-08-21T07:43:55;6.07;;;2.20;;
9974;SDS011;5028;50.974;4.968;2023-08-21T07:46:24;2.97;;;1.73;;
9974;SDS011;5028;50.974;4.968;2023-08-21T07:48:53;6.30;;;2.43;;
9974;SDS011;5028;50.974;4.968;2023-08-21T07:51:22;7.20;;;2.30;;
9974;SDS011;5028;50.974;4.968;2023-08-21T07:53:51;5.20;;;2.03;;
9974;SDS011;5028;50.974;4.968;2023-08-21T07:56:22;4.93;;;2.00;;
9974;SDS011;5028;50.974;4.968;2023-08-21T07:58:51;5.13;;;1.93;;
9974;SDS011;5028;50.974;4.968;2023-08-21T08:01:20;6.07;;;2.10;;
9974;SDS011;5028;50.974;4.968;2023-08-21T08:03:50;4.67;;;1.80;;
9974;SDS011;5028;50.974;4.968;2023-08-21T08:06:19;8.00;;;2.40;;
9974;SDS011;5028;50.974;4.968;2023-08-21T08:08:49;5.17;;;1.90;;
9974;SDS011;5028;50.974;4.968;2023-08-21T08:11:18;4.27;;;1.90;;
9974;SDS011;5028;50.974;4.968;2023-08-21T08:13:49;4.90;;;1.90;;
9974;SDS011;5028;50.974;4.968;2023-08-21T08:16:17;8.37;;;2.13;;
9974;SDS011;5028;50.974;4.968;2023-08-21T08:18:48;5.83;;;2.10;;
9974;SDS011;5028;50.974;4.968;2023-08-21T08:21:17;5.23;;;2.10;;
9974;SDS011;5028;50.974;4.968;2023-08-21T08:23:46;4.13;;;1.83;;
9974;SDS011;5028;50.974;4.968;2023-08-21T08:26:16;4.73;;;2.00;;
9974;SDS011;5028;50.974;4.968;2023-08-21T08:28:45;6.00;;;1.80;;
9974;SDS011;5028;50.974;4.968;2023-08-21T08:31:16;4.97;;;1.80;;
9974;SDS011;5028;50.974;4.968;2023-08-21T08:33:45;5.73;;;2.10;;
9974;SDS011;5028;50.974;4.968;2023-08-21T08:36:14;4.83;;;1.60;;
9974;SDS011;5028;50.974;4.968;2023-08-21T08:38:45;5.17;;;2.00;;
9974;SDS011;5028;50.974;4.968;2023-08-21T08:41:17;5.87;;;1.80;;
9974;SDS011;5028;50.974;4.968;2023-08-21T08:43:55;5.50;;;1.80;;
9974;SDS011;5028;50.974;4.968;2023-08-21T08:46:27;5.83;;;1.87;;
9974;SDS011;5028;50.974;4.968;2023-08-21T08:48:58;7.83;;;2.10;;
9974;SDS011;5028;50.974;4.968;2023-08-21T08:51:28;4.77;;;1.60;;
9974;SDS011;5028;50.974;4.968;2023-08-21T08:53:59;3.53;;;1.60;;
9974;SDS011;5028;50.974;4.968;2023-08-21T08:56:29;6.07;;;2.03;;
9974;SDS011;5028;50.974;4.968;2023-08-21T08:58:58;6.20;;;1.80;;
9974;SDS011;5028;50.974;4.968;2023-08-21T09:01:28;6.43;;;2.10;;
9974;SDS011;5028;50.974;4.968;2023-08-21T09:03:57;5.67;;;1.70;;
9974;SDS011;5028;50.974;4.968;2023-08-21T09:06:26;4.40;;;1.57;;
9974;SDS011;5028;50.974;4.968;2023-08-21T09:08:55;5.47;;;2.07;;
9974;SDS011;5028;50.974;4.968;2023-08-21T09:11:25;5.37;;;1.90;;
9974;SDS011;5028;50.974;4.968;2023-08-21T09:13:54;4.83;;;1.63;;
9974;SDS011;5028;50.974;4.968;2023-08-21T09:16:24;5.80;;;2.13;;
9974;SDS011;5028;50.974;4.968;2023-08-21T09:18:55;9.67;;;2.33;;
9974;SDS011;5028;50.974;4.968;2023-08-21T09:21:24;4.37;;;1.53;;
9974;SDS011;5028;50.974;4.968;2023-08-21T09:23:56;2.90;;;1.47;;
9974;SDS011;5028;50.974;4.968;2023-08-21T09:26:29;6.80;;;2.07;;
9974;SDS011;5028;50.974;4.968;2023-08-21T09:28:59;3.87;;;1.50;;
9974;SDS011;5028;50.974;4.968;2023-08-21T09:31:31;4.90;;;1.93;;
9974;SDS011;5028;50.974;4.968;2023-08-21T09:34:06;5.73;;;1.73;;
9974;SDS011;5028;50.974;4.968;2023-08-21T09:36:35;6.60;;;1.60;;
9974;SDS011;5028;50.974;4.968;2023-08-21T09:39:09;5.30;;;1.63;;
9974;SDS011;5028;50.974;4.968;2023-08-21T09:41:46;3.22;;;1.40;;
9974;SDS011;5028;50.974;4.968;2023-08-21T09:44:24;6.50;;;1.77;;
9974;SDS011;5028;50.974;4.968;2023-08-21T09:46:53;5.63;;;1.77;;
9974;SDS011;5028;50.974;4.968;2023-08-21T09:49:23;5.27;;;1.77;;
9974;SDS011;5028;50.974;4.968;2023-08-21T09:51:52;6.07;;;2.08;;
9974;SDS011;5028;50.974;4.968;2023-08-21T09:54:24;7.50;;;2.00;;
9974;SDS011;5028;50.974;4.968;2023-08-21T09:56:53;3.97;;;1.60;;
9974;SDS011;5028;50.974;4.968;2023-08-21T09:59:24;3.78;;;1.67;;
9974;SDS011;5028;50.974;4.968;2023-08-21T10:01:53;3.75;;;1.55;;
9974;SDS011;5028;50.974;4.968;2023-08-21T10:04:24;5.50;;;1.60;;
9974;SDS011;5028;50.974;4.968;2023-08-21T10:06:56;3.92;;;1.58;;
9974;SDS011;5028;50.974;4.968;2023-08-21T10:09:26;6.03;;;1.50;;
9974;SDS011;5028;50.974;4.968;2023-08-21T10:11:56;4.47;;;1.60;;
9974;SDS011;5028;50.974;4.968;2023-08-21T10:14:26;4.60;;;1.50;;
9974;SDS011;5028;50.974;4.968;2023-08-21T10:16:55;4.78;;;1.60;;
9974;SDS011;5028;50.974;4.968;2023-08-21T10:19:31;4.88;;;1.70;;
9974;SDS011;5028;50.974;4.968;2023-08-21T10:22:00;4.90;;;1.70;;
9974;SDS011;5028;50.974;4.968;2023-08-21T10:24:33;4.10;;;1.55;;
9974;SDS011;5028;50.974;4.968;2023-08-21T10:27:06;6.03;;;1.90;;
9974;SDS011;5028;50.974;4.968;2023-08-21T10:29:35;4.38;;;1.45;;
9974;SDS011;5028;50.974;4.968;2023-08-21T10:32:11;4.70;;;1.50;;
9974;SDS011;5028;50.974;4.968;2023-08-21T10:34:41;3.97;;;1.95;;
9974;SDS011;5028;50.974;4.968;2023-08-21T10:37:20;3.22;;;1.50;;
9974;SDS011;5028;50.974;4.968;2023-08-21T10:39:58;4.32;;;1.50;;
9974;SDS011;5028;50.974;4.968;2023-08-21T10:45:17;5.18;;;1.77;;
9974;SDS011;5028;50.974;4.968;2023-08-21T10:47:47;4.38;;;1.45;;
9974;SDS011;5028;50.974;4.968;2023-08-21T10:50:18;4.88;;;1.38;;
9974;SDS011;5028;50.974;4.968;2023-08-21T10:52:48;4.90;;;1.58;;
9974;SDS011;5028;50.974;4.968;2023-08-21T10:55:19;5.07;;;1.70;;
9974;SDS011;5028;50.974;4.968;2023-08-21T10:57:48;4.90;;;1.67;;
9974;SDS011;5028;50.974;4.968;2023-08-21T11:00:17;5.93;;;1.30;;
9974;SDS011;5028;50.974;4.968;2023-08-21T11:02:49;5.18;;;1.30;;
9974;SDS011;5028;50.974;4.968;2023-08-21T11:05:20;7.05;;;1.55;;
9974;SDS011;5028;50.974;4.968;2023-08-21T11:07:49;4.13;;;1.60;;
9974;SDS011;5028;50.974;4.968;2023-08-21T11:10:18;4.30;;;1.45;;
9974;SDS011;5028;50.974;4.968;2023-08-21T11:12:52;3.30;;;1.20;;
9974;SDS011;5028;50.974;4.968;2023-08-21T11:15:26;3.80;;;1.23;;
9974;SDS011;5028;50.974;4.968;2023-08-21T11:17:57;3.90;;;1.40;;
9974;SDS011;5028;50.974;4.968;2023-08-21T11:20:29;5.88;;;1.52;;
9974;SDS011;5028;50.974;4.968;2023-08-21T11:22:59;10.10;;;2.80;;
9974;SDS011;5028;50.974;4.968;2023-08-21T11:25:29;5.97;;;1.40;;
9974;SDS011;5028;50.974;4.968;2023-08-21T11:28:00;5.35;;;1.88;;
9974;SDS011;5028;50.974;4.968;2023-08-21T11:30:30;3.72;;;1.38;;
9974;SDS011;5028;50.974;4.968;2023-08-21T11:33:06;9.00;;;3.72;;
9974;SDS011;5028;50.974;4.968;2023-08-21T11:35:39;4.43;;;1.90;;
9974;SDS011;5028;50.974;4.968;2023-08-21T11:38:14;6.55;;;1.77;;
9974;SDS011;5028;50.974;4.968;2023-08-21T11:40:50;3.38;;;1.35;;
9974;SDS011;5028;50.974;4.968;2023-08-21T11:43:20;5.93;;;1.90;;
9974;SDS011;5028;50.974;4.968;2023-08-21T11:45:49;6.68;;;2.60;;
9974;SDS011;5028;50.974;4.968;2023-08-21T11:48:24;6.82;;;2.65;;
9974;SDS011;5028;50.974;4.968;2023-08-21T11:50:55;5.18;;;1.60;;
9974;SDS011;5028;50.974;4.968;2023-08-21T11:53:33;3.67;;;1.50;;
9974;SDS011;5028;50.974;4.968;2023-08-21T11:56:08;4.75;;;1.40;;
9974;SDS011;5028;50.974;4.968;2023-08-21T11:58:38;4.28;;;1.58;;
9974;SDS011;5028;50.974;4.968;2023-08-21T12:01:07;4.75;;;1.75;;
9974;SDS011;5028;50.974;4.968;2023-08-21T12:03:38;4.65;;;1.70;;
9974;SDS011;5028;50.974;4.968;2023-08-21T12:06:11;3.05;;;1.30;;
9974;SDS011;5028;50.974;4.968;2023-08-21T12:08:40;4.60;;;1.73;;
9974;SDS011;5028;50.974;4.968;2023-08-21T12:11:09;5.15;;;1.40;;
9974;SDS011;5028;50.974;4.968;2023-08-21T12:13:38;5.70;;;1.45;;
9974;SDS011;5028;50.974;4.968;2023-08-21T12:16:07;7.38;;;2.30;;
9974;SDS011;5028;50.974;4.968;2023-08-21T12:18:36;3.10;;;1.23;;
9974;SDS011;5028;50.974;4.968;2023-08-21T12:21:05;4.28;;;1.23;;
9974;SDS011;5028;50.974;4.968;2023-08-21T12:23:36;3.92;;;1.30;;
9974;SDS011;5028;50.974;4.968;2023-08-21T12:26:05;2.83;;;1.30;;
9974;SDS011;5028;50.974;4.968;2023-08-21T12:28:34;3.40;;;1.48;;
9974;SDS011;5028;50.974;4.968;2023-08-21T12:31:02;3.20;;;1.08;;
9974;SDS011;5028;50.974;4.968;2023-08-21T12:33:32;5.68;;;1.45;;
9974;SDS011;5028;50.974;4.968;2023-08-21T12:36:00;4.35;;;1.60;;
9974;SDS011;5028;50.974;4.968;2023-08-21T12:38:29;6.38;;;1.50;;
9974;SDS011;5028;50.974;4.968;2023-08-21T12:41:00;3.65;;;1.40;;
9974;SDS011;5028;50.974;4.968;2023-08-21T12:43:30;4.00;;;1.58;;
9974;SDS011;5028;50.974;4.968;2023-08-21T12:45:59;4.55;;;1.30;;
9974;SDS011;5028;50.974;4.968;2023-08-21T12:48:28;3.15;;;1.20;;
9974;SDS011;5028;50.974;4.968;2023-08-21T12:50:57;3.53;;;1.58;;
9974;SDS011;5028;50.974;4.968;2023-08-21T12:53:26;4.97;;;1.48;;
9974;SDS011;5028;50.974;4.968;2023-08-21T12:55:55;3.78;;;1.30;;
9974;SDS011;5028;50.974;4.968;2023-08-21T12:58:28;2.97;;;1.25;;
9974;SDS011;5028;50.974;4.968;2023-08-21T13:00:57;4.78;;;1.48;;
9974;SDS011;5028;50.974;4.968;2023-08-21T13:03:26;5.65;;;1.75;;
9974;SDS011;5028;50.974;4.968;2023-08-21T13:05:55;5.13;;;1.70;;
9974;SDS011;5028;50.974;4.968;2023-08-21T13:08:24;6.43;;;1.50;;
9974;SDS011;5028;50.974;4.968;2023-08-21T13:10:53;2.33;;;1.25;;
9974;SDS011;5028;50.974;4.968;2023-08-21T13:13:21;3.05;;;1.10;;
9974;SDS011;5028;50.974;4.968;2023-08-21T13:15:52;3.05;;;1.33;;
9974;SDS011;5028;50.974;4.968;2023-08-21T13:18:21;3.55;;;1.15;;
9974;SDS011;5028;50.974;4.968;2023-08-21T13:20:50;3.28;;;1.33;;
9974;SDS011;5028;50.974;4.968;2023-08-21T13:23:19;3.65;;;1.27;;
9974;SDS011;5028;50.974;4.968;2023-08-21T13:25:48;3.25;;;1.25;;
9974;SDS011;5028;50.974;4.968;2023-08-21T13:28:16;3.05;;;1.20;;
9974;SDS011;5028;50.974;4.968;2023-08-21T13:30:45;2.28;;;1.02;;
9974;SDS011;5028;50.974;4.968;2023-08-21T13:33:16;3.53;;;1.27;;
9974;SDS011;5028;50.974;4.968;2023-08-21T13:35:45;4.93;;;1.40;;
9974;SDS011;5028;50.974;4.968;2023-08-21T13:38:14;3.95;;;1.38;;
9974;SDS011;5028;50.974;4.968;2023-08-21T13:40:43;3.08;;;1.30;;
9974;SDS011;5028;50.974;4.968;2023-08-21T13:43:15;2.58;;;1.15;;
9974;SDS011;5028;50.974;4.968;2023-08-21T13:45:46;2.75;;;1.30;;
9974;SDS011;5028;50.974;4.968;2023-08-21T13:48:17;3.92;;;1.60;;
9974;SDS011;5028;50.974;4.968;2023-08-21T13:50:45;4.32;;;1.50;;
9974;SDS011;5028;50.974;4.968;2023-08-21T13:53:14;2.67;;;1.30;;
9974;SDS011;5028;50.974;4.968;2023-08-21T13:55:45;5.43;;;1.30;;
9974;SDS011;5028;50.974;4.968;2023-08-21T13:58:16;3.10;;;1.38;;
9974;SDS011;5028;50.974;4.968;2023-08-21T14:00:45;5.60;;;1.38;;
9974;SDS011;5028;50.974;4.968;2023-08-21T14:03:14;3.35;;;1.23;;
9974;SDS011;5028;50.974;4.968;2023-08-21T14:05:45;3.00;;;1.38;;
9974;SDS011;5028;50.974;4.968;2023-08-21T14:08:14;2.88;;;1.27;;
9974;SDS011;5028;50.974;4.968;2023-08-21T14:10:42;2.63;;;1.20;;
9974;SDS011;5028;50.974;4.968;2023-08-21T14:13:11;2.78;;;1.50;;
9974;SDS011;5028;50.974;4.968;2023-08-21T14:15:40;3.15;;;1.17;;
9974;SDS011;5028;50.974;4.968;2023-08-21T14:18:09;4.88;;;1.30;;
9974;SDS011;5028;50.974;4.968;2023-08-21T14:20:38;2.85;;;1.25;;
9974;SDS011;5028;50.974;4.968;2023-08-21T14:23:08;4.63;;;1.27;;
9974;SDS011;5028;50.974;4.968;2023-08-21T14:25:37;4.57;;;1.30;;
9974;SDS011;5028;50.974;4.968;2023-08-21T14:28:04;3.88;;;1.10;;
9974;SDS011;5028;50.974;4.968;2023-08-21T14:30:34;2.58;;;1.30;;
9974;SDS011;5028;50.974;4.968;2023-08-21T14:33:03;3.25;;;1.35;;
9974;SDS011;5028;50.974;4.968;2023-08-21T14:35:32;3.10;;;1.20;;
9974;SDS011;5028;50.974;4.968;2023-08-21T14:38:00;2.25;;;1.15;;
9974;SDS011;5028;50.974;4.968;2023-08-21T14:40:31;2.97;;;1.02;;
9974;SDS011;5028;50.974;4.968;2023-08-21T14:43:00;4.70;;;1.50;;
9974;SDS011;5028;50.974;4.968;2023-08-21T14:45:29;2.35;;;1.10;;
9974;SDS011;5028;50.974;4.968;2023-08-21T14:47:57;3.58;;;1.40;;
9974;SDS011;5028;50.974;4.968;2023-08-21T14:50:26;3.78;;;1.30;;
9974;SDS011;5028;50.974;4.968;2023-08-21T14:52:57;3.72;;;1.25;;
9974;SDS011;5028;50.974;4.968;2023-08-21T14:55:26;3.10;;;1.27;;
9974;SDS011;5028;50.974;4.968;2023-08-21T14:57:56;2.08;;;1.17;;
9974;SDS011;5028;50.974;4.968;2023-08-21T15:00:25;2.47;;;1.20;;
9974;SDS011;5028;50.974;4.968;2023-08-21T15:02:55;3.15;;;1.23;;
9974;SDS011;5028;50.974;4.968;2023-08-21T15:05:24;2.60;;;1.10;;
9974;SDS011;5028;50.974;4.968;2023-08-21T15:07:53;2.33;;;1.08;;
9974;SDS011;5028;50.974;4.968;2023-08-21T15:10:22;3.38;;;1.38;;
9974;SDS011;5028;50.974;4.968;2023-08-21T15:12:50;3.15;;;1.13;;
9974;SDS011;5028;50.974;4.968;2023-08-21T15:15:22;5.10;;;1.42;;
9974;SDS011;5028;50.974;4.968;2023-08-21T15:17:51;3.40;;;1.45;;
9974;SDS011;5028;50.974;4.968;2023-08-21T15:20:20;2.75;;;1.15;;
9974;SDS011;5028;50.974;4.968;2023-08-21T15:22:48;3.50;;;1.42;;
9974;SDS011;5028;50.974;4.968;2023-08-21T15:25:17;3.95;;;1.33;;
9974;SDS011;5028;50.974;4.968;2023-08-21T15:27:47;3.25;;;1.30;;
9974;SDS011;5028;50.974;4.968;2023-08-21T15:30:16;3.15;;;1.50;;
9974;SDS011;5028;50.974;4.968;2023-08-21T15:32:47;3.58;;;1.17;;
9974;SDS011;5028;50.974;4.968;2023-08-21T15:35:16;2.45;;;1.17;;